createdAt,value
2023-05-12T06:21:33.003Z,100.00
2023-05-12T06:31:32.881Z,100.00
2023-05-12T06:41:33.129Z,100.00
2023-05-12T06:51:32.867Z,100.00
2023-05-12T07:01:32.979Z,100.00
2023-05-12T07:11:32.750Z,100.00
2023-05-12T07:21:32.950Z,100.00
2023-05-12T07:31:33.209Z,100.00
2023-05-12T07:41:34.449Z,100.00
2023-05-12T07:51:33.071Z,100.00
2023-05-12T08:01:33.039Z,100.00
2023-05-12T08:11:33.205Z,100.00
2023-05-12T08:21:33.279Z,100.00
2023-05-12T08:31:33.476Z,100.00
2023-05-12T08:41:33.388Z,100.00
2023-05-12T08:51:33.271Z,100.00
2023-05-12T09:01:35.345Z,98.71
2023-05-12T09:11:33.289Z,90.25
2023-05-12T09:21:33.450Z,84.52
2023-05-12T09:31:33.549Z,84.04
2023-05-12T09:41:33.604Z,84.94
2023-05-12T09:51:33.480Z,77.07
2023-05-12T10:01:33.668Z,73.79
2023-05-12T10:11:33.404Z,62.66
2023-05-12T10:21:33.477Z,62.46
2023-05-12T10:31:33.649Z,56.42
2023-05-12T10:41:33.368Z,61.82
2023-05-12T10:51:33.477Z,56.90
2023-05-12T11:01:34.838Z,56.00
2023-05-12T11:11:34.231Z,54.56
2023-05-12T11:21:33.323Z,54.07
2023-05-12T11:31:33.536Z,50.77
2023-05-12T11:41:33.476Z,54.55
2023-05-12T11:51:33.320Z,55.24
2023-05-12T12:01:33.397Z,53.86
2023-05-12T12:11:33.460Z,53.77
2023-05-12T12:21:33.529Z,55.67
2023-05-12T12:31:33.717Z,47.35
2023-05-12T12:41:33.455Z,43.27
2023-05-12T12:51:45.179Z,43.12
2023-05-12T13:01:33.782Z,42.21
2023-05-12T13:11:33.754Z,44.59
2023-05-12T13:21:33.517Z,46.10
2023-05-12T13:31:33.880Z,45.52
2023-05-12T13:41:33.538Z,42.47
2023-05-12T13:51:33.746Z,40.74
2023-05-12T14:01:33.726Z,42.72
2023-05-12T14:11:33.632Z,41.64
2023-05-12T14:21:33.614Z,39.52
2023-05-12T14:31:33.612Z,44.65
2023-05-12T14:41:33.639Z,44.37
2023-05-12T14:51:33.711Z,40.71
2023-05-12T15:01:33.784Z,39.05
2023-05-12T15:11:33.741Z,43.13
2023-05-12T15:21:34.771Z,42.83
2023-05-12T15:31:34.233Z,43.01
2023-05-12T15:41:33.957Z,43.39
2023-05-12T15:51:33.796Z,45.25
2023-05-12T16:01:34.128Z,42.12
2023-05-12T16:11:34.037Z,41.38
2023-05-12T16:21:33.901Z,39.88
2023-05-12T16:31:33.923Z,42.47
2023-05-12T16:41:33.783Z,42.95
2023-05-12T16:51:33.905Z,41.36
2023-05-12T17:01:33.999Z,41.06
2023-05-12T17:11:34.937Z,41.77
2023-05-12T17:21:34.085Z,43.28
2023-05-12T17:31:34.025Z,42.03
2023-05-12T17:41:34.015Z,43.25
2023-05-12T17:51:33.878Z,44.68
2023-05-12T18:01:34.143Z,45.83
2023-05-12T18:11:34.017Z,45.99
2023-05-12T18:21:34.086Z,45.24
2023-05-12T18:31:34.073Z,45.93
2023-05-12T18:41:34.148Z,46.87
2023-05-12T18:51:33.982Z,47.61
2023-05-12T19:01:34.083Z,48.05
2023-05-12T19:11:33.899Z,48.31
2023-05-12T19:21:34.070Z,48.60
